sensor_id;sensor_type;location;lat;lon;timestamp;P1;durP1;ratioP1;P2;durP2;ratioP2
15295;SDS011;7749;49.964;7.890;2023-08-20T00:00:00;10.07;;;8.23;;
15295;SDS011;7749;49.964;7.890;2023-08-20T00:02:29;8.32;;;7.50;;
15295;SDS011;7749;49.964;7.890;2023-08-20T00:05:00;9.75;;;7.30;;
15295;SDS011;7749;49.964;7.890;2023-08-20T00:07:31;8.82;;;8.00;;
15295;SDS011;7749;49.964;7.890;2023-08-20T00:09:59;11.15;;;7.90;;
15295;SDS011;7749;49.964;7.890;2023-08-20T00:12:26;8.73;;;7.90;;
15295;SDS011;7749;49.964;7.890;2023-08-20T00:15:03;9.85;;;7.82;;
15295;SDS011;7749;49.964;7.890;2023-08-20T00:17:36;9.20;;;7.32;;
15295;SDS011;7749;49.964;7.890;2023-08-20T00:20:06;9.57;;;7.43;;
15295;SDS011;7749;49.964;7.890;2023-08-20T00:22:42;8.85;;;7.70;;
15295;SDS011;7749;49.964;7.890;2023-08-20T00:25:12;8.95;;;8.15;;
15295;SDS011;7749;49.964;7.890;2023-08-20T00:27:40;9.85;;;7.82;;
15295;SDS011;7749;49.964;7.890;2023-08-20T00:30:08;9.52;;;7.85;;
15295;SDS011;7749;49.964;7.890;2023-08-20T00:32:37;8.68;;;7.47;;
15295;SDS011;7749;49.964;7.890;2023-08-20T00:35:05;10.45;;;7.93;;
15295;SDS011;7749;49.964;7.890;2023-08-20T00:37:34;11.50;;;8.05;;
15295;SDS011;7749;49.964;7.890;2023-08-20T00:40:02;9.02;;;8.18;;
15295;SDS011;7749;49.964;7.890;2023-08-20T00:42:34;8.85;;;8.15;;
15295;SDS011;7749;49.964;7.890;2023-08-20T00:45:01;9.27;;;8.07;;
15295;SDS011;7749;49.964;7.890;2023-08-20T00:47:30;9.10;;;8.20;;
15295;SDS011;7749;49.964;7.890;2023-08-20T00:49:58;9.45;;;8.43;;
15295;SDS011;7749;49.964;7.890;2023-08-20T00:52:25;8.23;;;7.50;;
15295;SDS011;7749;49.964;7.890;2023-08-20T00:54:53;9.88;;;8.00;;
15295;SDS011;7749;49.964;7.890;2023-08-20T00:57:21;12.07;;;8.60;;
15295;SDS011;7749;49.964;7.890;2023-08-20T00:59:49;10.55;;;8.27;;
15295;SDS011;7749;49.964;7.890;2023-08-20T01:02:17;8.52;;;7.63;;
15295;SDS011;7749;49.964;7.890;2023-08-20T01:04:45;8.75;;;7.85;;
15295;SDS011;7749;49.964;7.890;2023-08-20T01:07:21;10.93;;;8.30;;
15295;SDS011;7749;49.964;7.890;2023-08-20T01:10:18;14.38;;;8.43;;
15295;SDS011;7749;49.964;7.890;2023-08-20T01:13:02;12.38;;;7.93;;
15295;SDS011;7749;49.964;7.890;2023-08-20T01:15:31;8.63;;;7.72;;
15295;SDS011;7749;49.964;7.890;2023-08-20T01:17:58;13.18;;;7.95;;
15295;SDS011;7749;49.964;7.890;2023-08-20T01:20:28;8.73;;;7.82;;
15295;SDS011;7749;49.964;7.890;2023-08-20T01:23:18;9.35;;;8.13;;
15295;SDS011;7749;49.964;7.890;2023-08-20T01:26:13;8.43;;;7.55;;
15295;SDS011;7749;49.964;7.890;2023-08-20T01:28:54;9.30;;;7.57;;
15295;SDS011;7749;49.964;7.890;2023-08-20T01:31:22;8.55;;;7.78;;
15295;SDS011;7749;49.964;7.890;2023-08-20T01:33:50;8.70;;;7.78;;
15295;SDS011;7749;49.964;7.890;2023-08-20T01:36:20;8.80;;;7.90;;
15295;SDS011;7749;49.964;7.890;2023-08-20T01:38:48;8.68;;;7.65;;
15295;SDS011;7749;49.964;7.890;2023-08-20T01:41:16;10.43;;;7.72;;
15295;SDS011;7749;49.964;7.890;2023-08-20T01:43:43;9.70;;;8.07;;
15295;SDS011;7749;49.964;7.890;2023-08-20T01:46:11;10.05;;;9.05;;
15295;SDS011;7749;49.964;7.890;2023-08-20T01:48:39;9.02;;;8.18;;
15295;SDS011;7749;49.964;7.890;2023-08-20T01:51:07;11.75;;;8.23;;
15295;SDS011;7749;49.964;7.890;2023-08-20T01:53:35;9.40;;;8.40;;
15295;SDS011;7749;49.964;7.890;2023-08-20T01:56:02;9.52;;;8.10;;
15295;SDS011;7749;49.964;7.890;2023-08-20T01:58:30;9.75;;;8.75;;
15295;SDS011;7749;49.964;7.890;2023-08-20T02:00:59;11.07;;;8.07;;
15295;SDS011;7749;49.964;7.890;2023-08-20T02:03:26;10.80;;;8.48;;
15295;SDS011;7749;49.964;7.890;2023-08-20T02:05:54;8.48;;;7.40;;
15295;SDS011;7749;49.964;7.890;2023-08-20T02:08:21;11.45;;;8.43;;
15295;SDS011;7749;49.964;7.890;2023-08-20T02:10:50;8.23;;;7.13;;
15295;SDS011;7749;49.964;7.890;2023-08-20T02:13:25;11.93;;;8.10;;
15295;SDS011;7749;49.964;7.890;2023-08-20T02:15:59;8.90;;;8.00;;
15295;SDS011;7749;49.964;7.890;2023-08-20T02:18:28;8.63;;;7.72;;
15295;SDS011;7749;49.964;7.890;2023-08-20T02:20:56;10.93;;;8.55;;
15295;SDS011;7749;49.964;7.890;2023-08-20T02:23:23;8.75;;;7.95;;
15295;SDS011;7749;49.964;7.890;2023-08-20T02:25:51;10.98;;;8.23;;
15295;SDS011;7749;49.964;7.890;2023-08-20T02:28:19;11.57;;;8.70;;
15295;SDS011;7749;49.964;7.890;2023-08-20T02:30:46;9.65;;;8.68;;
15295;SDS011;7749;49.964;7.890;2023-08-20T02:33:14;11.20;;;8.32;;
15295;SDS011;7749;49.964;7.890;2023-08-20T02:35:41;10.43;;;9.07;;
15295;SDS011;7749;49.964;7.890;2023-08-20T02:38:09;9.43;;;8.52;;
15295;SDS011;7749;49.964;7.890;2023-08-20T02:40:40;10.18;;;8.82;;
15295;SDS011;7749;49.964;7.890;2023-08-20T02:43:08;10.15;;;9.20;;
15295;SDS011;7749;49.964;7.890;2023-08-20T02:45:42;10.80;;;9.80;;
15295;SDS011;7749;49.964;7.890;2023-08-20T02:48:11;13.05;;;9.65;;
15295;SDS011;7749;49.964;7.890;2023-08-20T02:50:39;10.07;;;9.07;;
15295;SDS011;7749;49.964;7.890;2023-08-20T02:53:06;11.20;;;10.00;;
15295;SDS011;7749;49.964;7.890;2023-08-20T02:55:34;12.68;;;10.20;;
15295;SDS011;7749;49.964;7.890;2023-08-20T02:58:02;12.35;;;10.52;;
15295;SDS011;7749;49.964;7.890;2023-08-20T03:00:30;11.63;;;10.43;;
15295;SDS011;7749;49.964;7.890;2023-08-20T03:02:58;11.40;;;10.30;;
15295;SDS011;7749;49.964;7.890;2023-08-20T03:05:25;11.35;;;10.25;;
15295;SDS011;7749;49.964;7.890;2023-08-20T03:07:53;11.80;;;10.63;;
15295;SDS011;7749;49.964;7.890;2023-08-20T03:10:20;12.05;;;10.85;;
15295;SDS011;7749;49.964;7.890;2023-08-20T03:12:48;12.65;;;11.35;;
15295;SDS011;7749;49.964;7.890;2023-08-20T03:15:15;15.30;;;11.35;;
15295;SDS011;7749;49.964;7.890;2023-08-20T03:17:42;11.32;;;10.20;;
15295;SDS011;7749;49.964;7.890;2023-08-20T03:20:10;12.57;;;11.15;;
15295;SDS011;7749;49.964;7.890;2023-08-20T03:22:38;13.30;;;10.80;;
15295;SDS011;7749;49.964;7.890;2023-08-20T03:25:06;10.88;;;9.73;;
15295;SDS011;7749;49.964;7.890;2023-08-20T03:27:34;11.23;;;9.95;;
15295;SDS011;7749;49.964;7.890;2023-08-20T03:30:02;12.88;;;10.43;;
15295;SDS011;7749;49.964;7.890;2023-08-20T03:32:30;10.95;;;9.90;;
15295;SDS011;7749;49.964;7.890;2023-08-20T03:34:58;14.20;;;10.23;;
15295;SDS011;7749;49.964;7.890;2023-08-20T03:37:26;15.07;;;9.30;;
15295;SDS011;7749;49.964;7.890;2023-08-20T03:39:53;11.88;;;9.10;;
15295;SDS011;7749;49.964;7.890;2023-08-20T03:42:21;11.52;;;9.68;;
15295;SDS011;7749;49.964;7.890;2023-08-20T03:44:48;11.07;;;9.73;;
15295;SDS011;7749;49.964;7.890;2023-08-20T03:47:16;9.63;;;8.77;;
15295;SDS011;7749;49.964;7.890;2023-08-20T03:49:47;10.23;;;9.23;;
15295;SDS011;7749;49.964;7.890;2023-08-20T03:52:15;10.15;;;9.25;;
15295;SDS011;7749;49.964;7.890;2023-08-20T03:54:42;11.82;;;9.30;;
15295;SDS011;7749;49.964;7.890;2023-08-20T03:57:10;9.70;;;8.60;;
15295;SDS011;7749;49.964;7.890;2023-08-20T03:59:37;10.27;;;9.00;;
15295;SDS011;7749;49.964;7.890;2023-08-20T04:02:05;12.80;;;9.65;;
15295;SDS011;7749;49.964;7.890;2023-08-20T04:04:32;10.52;;;9.25;;
15295;SDS011;7749;49.964;7.890;2023-08-20T04:07:00;12.13;;;8.52;;
15295;SDS011;7749;49.964;7.890;2023-08-20T04:09:27;11.55;;;9.10;;
15295;SDS011;7749;49.964;7.890;2023-08-20T04:11:55;9.05;;;8.10;;
15295;SDS011;7749;49.964;7.890;2023-08-20T04:14:22;10.32;;;8.45;;
15295;SDS011;7749;49.964;7.890;2023-08-20T04:16:50;10.60;;;8.55;;
15295;SDS011;7749;49.964;7.890;2023-08-20T04:19:17;10.95;;;8.25;;
15295;SDS011;7749;49.964;7.890;2023-08-20T04:21:44;9.15;;;8.30;;
15295;SDS011;7749;49.964;7.890;2023-08-20T04:24:12;10.60;;;8.57;;
15295;SDS011;7749;49.964;7.890;2023-08-20T04:26:39;8.88;;;7.97;;
15295;SDS011;7749;49.964;7.890;2023-08-20T04:29:07;9.45;;;8.38;;
15295;SDS011;7749;49.964;7.890;2023-08-20T04:31:34;10.82;;;8.10;;
15295;SDS011;7749;49.964;7.890;2023-08-20T04:34:02;9.30;;;8.40;;
15295;SDS011;7749;49.964;7.890;2023-08-20T04:36:29;8.68;;;7.88;;
15295;SDS011;7749;49.964;7.890;2023-08-20T04:38:57;10.68;;;8.00;;
15295;SDS011;7749;49.964;7.890;2023-08-20T04:41:24;11.80;;;8.65;;
15295;SDS011;7749;49.964;7.890;2023-08-20T04:43:51;9.55;;;8.30;;
15295;SDS011;7749;49.964;7.890;2023-08-20T04:46:19;9.70;;;8.25;;
15295;SDS011;7749;49.964;7.890;2023-08-20T04:48:47;10.85;;;8.38;;
15295;SDS011;7749;49.964;7.890;2023-08-20T04:51:15;9.48;;;8.52;;
15295;SDS011;7749;49.964;7.890;2023-08-20T04:53:42;10.25;;;8.68;;
15295;SDS011;7749;49.964;7.890;2023-08-20T04:56:10;9.45;;;8.55;;
15295;SDS011;7749;49.964;7.890;2023-08-20T04:58:37;9.38;;;8.35;;
15295;SDS011;7749;49.964;7.890;2023-08-20T05:01:05;9.48;;;8.52;;
15295;SDS011;7749;49.964;7.890;2023-08-20T05:03:32;11.35;;;9.25;;
15295;SDS011;7749;49.964;7.890;2023-08-20T05:06:00;8.52;;;7.72;;
15295;SDS011;7749;49.964;7.890;2023-08-20T05:08:29;10.52;;;9.52;;
15295;SDS011;7749;49.964;7.890;2023-08-20T05:10:56;11.05;;;8.77;;
15295;SDS011;7749;49.964;7.890;2023-08-20T05:13:23;10.43;;;8.68;;
15295;SDS011;7749;49.964;7.890;2023-08-20T05:15:51;9.82;;;8.82;;
15295;SDS011;7749;49.964;7.890;2023-08-20T05:18:18;10.30;;;8.75;;
15295;SDS011;7749;49.964;7.890;2023-08-20T05:20:46;12.77;;;9.02;;
15295;SDS011;7749;49.964;7.890;2023-08-20T05:23:13;11.07;;;8.82;;
15295;SDS011;7749;49.964;7.890;2023-08-20T05:25:40;10.88;;;9.25;;
15295;SDS011;7749;49.964;7.890;2023-08-20T05:28:08;11.82;;;9.35;;
15295;SDS011;7749;49.964;7.890;2023-08-20T05:30:35;10.38;;;8.63;;
15295;SDS011;7749;49.964;7.890;2023-08-20T05:33:03;10.25;;;8.90;;
15295;SDS011;7749;49.964;7.890;2023-08-20T05:35:31;10.10;;;8.50;;
15295;SDS011;7749;49.964;7.890;2023-08-20T05:37:58;10.02;;;8.50;;
15295;SDS011;7749;49.964;7.890;2023-08-20T05:40:25;9.68;;;8.32;;
15295;SDS011;7749;49.964;7.890;2023-08-20T05:42:53;9.63;;;8.00;;
15295;SDS011;7749;49.964;7.890;2023-08-20T05:45:20;11.60;;;7.97;;
15295;SDS011;7749;49.964;7.890;2023-08-20T05:47:48;9.77;;;8.27;;
15295;SDS011;7749;49.964;7.890;2023-08-20T05:50:15;8.30;;;7.60;;
15295;SDS011;7749;49.964;7.890;2023-08-20T05:52:43;8.57;;;7.85;;
15295;SDS011;7749;49.964;7.890;2023-08-20T05:55:10;7.95;;;7.22;;
15295;SDS011;7749;49.964;7.890;2023-08-20T05:57:38;10.02;;;7.60;;
15295;SDS011;7749;49.964;7.890;2023-08-20T06:00:05;8.57;;;7.70;;
15295;SDS011;7749;49.964;7.890;2023-08-20T06:02:33;7.57;;;6.97;;
15295;SDS011;7749;49.964;7.890;2023-08-20T06:05:01;8.68;;;7.18;;
15295;SDS011;7749;49.964;7.890;2023-08-20T06:07:31;9.07;;;7.10;;
15295;SDS011;7749;49.964;7.890;2023-08-20T06:09:58;7.53;;;6.65;;
15295;SDS011;7749;49.964;7.890;2023-08-20T06:12:26;7.00;;;6.30;;
15295;SDS011;7749;49.964;7.890;2023-08-20T06:14:53;7.88;;;7.05;;
15295;SDS011;7749;49.964;7.890;2023-08-20T06:17:21;10.27;;;7.05;;
15295;SDS011;7749;49.964;7.890;2023-08-20T06:19:48;8.00;;;7.20;;
15295;SDS011;7749;49.964;7.890;2023-08-20T06:22:16;8.85;;;7.10;;
15295;SDS011;7749;49.964;7.890;2023-08-20T06:24:43;9.75;;;7.00;;
15295;SDS011;7749;49.964;7.890;2023-08-20T06:27:11;7.30;;;6.57;;
15295;SDS011;7749;49.964;7.890;2023-08-20T06:29:39;8.65;;;6.93;;
15295;SDS011;7749;49.964;7.890;2023-08-20T06:32:06;7.68;;;6.60;;
15295;SDS011;7749;49.964;7.890;2023-08-20T06:34:34;8.52;;;7.45;;
15295;SDS011;7749;49.964;7.890;2023-08-20T06:37:03;9.07;;;8.25;;
15295;SDS011;7749;49.964;7.890;2023-08-20T06:39:30;8.60;;;7.80;;
15295;SDS011;7749;49.964;7.890;2023-08-20T06:41:58;9.80;;;8.18;;
15295;SDS011;7749;49.964;7.890;2023-08-20T06:44:26;8.98;;;8.07;;
15295;SDS011;7749;49.964;7.890;2023-08-20T06:46:53;9.93;;;9.02;;
15295;SDS011;7749;49.964;7.890;2023-08-20T06:49:21;12.60;;;9.73;;
15295;SDS011;7749;49.964;7.890;2023-08-20T06:51:48;11.55;;;10.35;;
15295;SDS011;7749;49.964;7.890;2023-08-20T06:54:16;15.20;;;12.32;;
15295;SDS011;7749;49.964;7.890;2023-08-20T06:56:43;13.55;;;11.98;;
15295;SDS011;7749;49.964;7.890;2023-08-20T06:59:10;13.88;;;11.73;;
15295;SDS011;7749;49.964;7.890;2023-08-20T07:01:38;11.93;;;10.27;;
15295;SDS011;7749;49.964;7.890;2023-08-20T07:04:05;11.70;;;10.52;;
15295;SDS011;7749;49.964;7.890;2023-08-20T07:06:33;12.45;;;11.18;;
15295;SDS011;7749;49.964;7.890;2023-08-20T07:09:01;11.52;;;10.32;;
15295;SDS011;7749;49.964;7.890;2023-08-20T07:11:30;11.07;;;10.07;;
15295;SDS011;7749;49.964;7.890;2023-08-20T07:13:58;11.68;;;10.57;;
15295;SDS011;7749;49.964;7.890;2023-08-20T07:16:25;11.23;;;10.13;;
15295;SDS011;7749;49.964;7.890;2023-08-20T07:18:52;11.13;;;10.02;;
15295;SDS011;7749;49.964;7.890;2023-08-20T07:21:20;11.48;;;9.77;;
15295;SDS011;7749;49.964;7.890;2023-08-20T07:23:47;10.63;;;9.70;;
15295;SDS011;7749;49.964;7.890;2023-08-20T07:26:15;11.02;;;9.90;;
15295;SDS011;7749;49.964;7.890;2023-08-20T07:28:42;11.93;;;10.60;;
15295;SDS011;7749;49.964;7.890;2023-08-20T07:31:29;13.23;;;10.50;;
15295;SDS011;7749;49.964;7.890;2023-08-20T07:34:00;12.20;;;9.70;;
15295;SDS011;7749;49.964;7.890;2023-08-20T07:36:32;11.43;;;10.23;;
15295;SDS011;7749;49.964;7.890;2023-08-20T07:38:59;13.57;;;10.05;;
15295;SDS011;7749;49.964;7.890;2023-08-20T07:41:29;11.60;;;10.60;;
15295;SDS011;7749;49.964;7.890;2023-08-20T07:43:57;12.30;;;11.10;;
15295;SDS011;7749;49.964;7.890;2023-08-20T07:46:24;12.25;;;11.05;;
15295;SDS011;7749;49.964;7.890;2023-08-20T07:48:52;12.02;;;10.88;;
15295;SDS011;7749;49.964;7.890;2023-08-20T07:51:20;13.25;;;11.85;;
15295;SDS011;7749;49.964;7.890;2023-08-20T07:53:47;12.10;;;10.90;;
15295;SDS011;7749;49.964;7.890;2023-08-20T07:56:14;11.35;;;10.25;;
15295;SDS011;7749;49.964;7.890;2023-08-20T07:58:42;11.98;;;10.82;;
15295;SDS011;7749;49.964;7.890;2023-08-20T08:01:09;10.90;;;9.90;;
15295;SDS011;7749;49.964;7.890;2023-08-20T08:03:37;11.00;;;9.88;;
15295;SDS011;7749;49.964;7.890;2023-08-20T08:06:04;11.75;;;10.55;;
15295;SDS011;7749;49.964;7.890;2023-08-20T08:08:32;11.98;;;10.95;;
15295;SDS011;7749;49.964;7.890;2023-08-20T08:11:01;12.32;;;11.18;;
15295;SDS011;7749;49.964;7.890;2023-08-20T08:13:28;11.55;;;10.45;;
15295;SDS011;7749;49.964;7.890;2023-08-20T08:15:58;11.40;;;10.35;;
15295;SDS011;7749;49.964;7.890;2023-08-20T08:18:25;10.70;;;9.70;;
15295;SDS011;7749;49.964;7.890;2023-08-20T08:20:53;12.35;;;11.15;;
15295;SDS011;7749;49.964;7.890;2023-08-20T08:23:20;12.43;;;10.90;;
15295;SDS011;7749;49.964;7.890;2023-08-20T08:25:48;12.30;;;11.00;;
15295;SDS011;7749;49.964;7.890;2023-08-20T08:28:15;12.68;;;11.38;;
15295;SDS011;7749;49.964;7.890;2023-08-20T08:30:43;11.90;;;10.80;;
15295;SDS011;7749;49.964;7.890;2023-08-20T08:33:10;11.75;;;10.57;;
15295;SDS011;7749;49.964;7.890;2023-08-20T08:35:38;10.98;;;9.88;;
15295;SDS011;7749;49.964;7.890;2023-08-20T08:38:05;11.40;;;10.10;;
15295;SDS011;7749;49.964;7.890;2023-08-20T08:40:33;11.07;;;10.05;;
15295;SDS011;7749;49.964;7.890;2023-08-20T08:43:01;10.63;;;9.65;;
15295;SDS011;7749;49.964;7.890;2023-08-20T08:45:29;11.00;;;9.90;;
15295;SDS011;7749;49.964;7.890;2023-08-20T08:48:01;10.85;;;9.32;;
15295;SDS011;7749;49.964;7.890;2023-08-20T08:50:29;10.82;;;9.52;;
15295;SDS011;7749;49.964;7.890;2023-08-20T08:52:58;10.93;;;9.82;;
15295;SDS011;7749;49.964;7.890;2023-08-20T08:55:26;9.43;;;8.52;;
15295;SDS011;7749;49.964;7.890;2023-08-20T08:57:53;10.38;;;9.38;;
15295;SDS011;7749;49.964;7.890;2023-08-20T09:00:21;10.55;;;9.43;;
15295;SDS011;7749;49.964;7.890;2023-08-20T09:02:48;10.73;;;9.73;;
15295;SDS011;7749;49.964;7.890;2023-08-20T09:05:16;10.55;;;9.13;;
15295;SDS011;7749;49.964;7.890;2023-08-20T09:07:44;10.13;;;9.10;;
15295;SDS011;7749;49.964;7.890;2023-08-20T09:10:11;9.40;;;8.60;;
15295;SDS011;7749;49.964;7.890;2023-08-20T09:12:39;9.55;;;8.45;;
15295;SDS011;7749;49.964;7.890;2023-08-20T09:15:10;9.52;;;8.63;;
15295;SDS011;7749;49.964;7.890;2023-08-20T09:17:41;9.65;;;8.60;;
15295;SDS011;7749;49.964;7.890;2023-08-20T09:20:09;9.32;;;8.25;;
15295;SDS011;7749;49.964;7.890;2023-08-20T09:22:37;9.60;;;8.80;;
15295;SDS011;7749;49.964;7.890;2023-08-20T09:25:04;9.68;;;8.75;;
15295;SDS011;7749;49.964;7.890;2023-08-20T09:27:38;9.85;;;9.02;;
15295;SDS011;7749;49.964;7.890;2023-08-20T09:30:09;8.63;;;7.85;;
15295;SDS011;7749;49.964;7.890;2023-08-20T09:32:44;9.13;;;8.32;;
15295;SDS011;7749;49.964;7.890;2023-08-20T09:35:17;8.55;;;7.78;;
15295;SDS011;7749;49.964;7.890;2023-08-20T09:37:45;8.55;;;7.63;;
15295;SDS011;7749;49.964;7.890;2023-08-20T09:40:13;8.65;;;7.85;;
15295;SDS011;7749;49.964;7.890;2023-08-20T09:42:40;7.10;;;6.43;;
15295;SDS011;7749;49.964;7.890;2023-08-20T09:45:09;7.80;;;7.05;;
15295;SDS011;7749;49.964;7.890;2023-08-20T09:47:37;7.57;;;6.88;;
15295;SDS011;7749;49.964;7.890;2023-08-20T09:50:07;7.35;;;6.28;;
15295;SDS011;7749;49.964;7.890;2023-08-20T09:52:39;8.10;;;7.07;;
15295;SDS011;7749;49.964;7.890;2023-08-20T09:55:13;8.00;;;7.20;;
15295;SDS011;7749;49.964;7.890;2023-08-20T09:57:48;8.23;;;6.63;;
15295;SDS011;7749;49.964;7.890;2023-08-20T10:00:18;6.43;;;5.65;;
15295;SDS011;7749;49.964;7.890;2023-08-20T10:02:46;8.18;;;6.78;;
15295;SDS011;7749;49.964;7.890;2023-08-20T10:05:16;8.95;;;6.57;;
15295;SDS011;7749;49.964;7.890;2023-08-20T10:07:44;7.22;;;6.18;;
15295;SDS011;7749;49.964;7.890;2023-08-20T10:10:12;6.82;;;6.13;;
15295;SDS011;7749;49.964;7.890;2023-08-20T10:12:41;7.13;;;6.55;;
15295;SDS011;7749;49.964;7.890;2023-08-20T10:15:11;7.45;;;6.30;;
15295;SDS011;7749;49.964;7.890;2023-08-20T10:17:41;6.75;;;5.72;;
15295;SDS011;7749;49.964;7.890;2023-08-20T10:20:12;6.47;;;5.82;;
15295;SDS011;7749;49.964;7.890;2023-08-20T10:22:43;5.50;;;5.00;;
15295;SDS011;7749;49.964;7.890;2023-08-20T10:25:24;5.68;;;5.18;;
15295;SDS011;7749;49.964;7.890;2023-08-20T10:27:53;5.75;;;5.20;;
15295;SDS011;7749;49.964;7.890;2023-08-20T10:30:24;8.68;;;5.30;;
15295;SDS011;7749;49.964;7.890;2023-08-20T10:32:55;4.93;;;4.53;;
15295;SDS011;7749;49.964;7.890;2023-08-20T10:35:28;5.47;;;4.45;;
15295;SDS011;7749;49.964;7.890;2023-08-20T10:38:14;5.82;;;4.85;;
15295;SDS011;7749;49.964;7.890;2023-08-20T10:40:55;5.65;;;4.93;;
15295;SDS011;7749;49.964;7.890;2023-08-20T10:43:30;4.93;;;4.50;;
15295;SDS011;7749;49.964;7.890;2023-08-20T10:46:03;4.75;;;4.28;;
15295;SDS011;7749;49.964;7.890;2023-08-20T10:48:40;4.93;;;4.10;;
15295;SDS011;7749;49.964;7.890;2023-08-20T10:51:10;5.47;;;3.97;;
15295;SDS011;7749;49.964;7.890;2023-08-20T10:53:38;4.30;;;3.88;;
15295;SDS011;7749;49.964;7.890;2023-08-20T10:56:13;4.47;;;3.55;;
15295;SDS011;7749;49.964;7.890;2023-08-20T10:58:45;5.00;;;3.50;;
15295;SDS011;7749;49.964;7.890;2023-08-20T11:03:43;4.00;;;3.47;;
15295;SDS011;7749;49.964;7.890;2023-08-20T11:06:12;6.03;;;4.10;;
15295;SDS011;7749;49.964;7.890;2023-08-20T11:08:39;3.83;;;3.53;;
15295;SDS011;7749;49.964;7.890;2023-08-20T11:11:08;4.25;;;3.13;;
15295;SDS011;7749;49.964;7.890;2023-08-20T11:13:36;4.10;;;3.30;;
15295;SDS011;7749;49.964;7.890;2023-08-20T11:16:04;3.95;;;3.17;;
15295;SDS011;7749;49.964;7.890;2023-08-20T11:18:32;5.32;;;3.38;;
15295;SDS011;7749;49.964;7.890;2023-08-20T11:21:00;3.90;;;3.60;;
15295;SDS011;7749;49.964;7.890;2023-08-20T11:23:28;7.03;;;3.90;;
15295;SDS011;7749;49.964;7.890;2023-08-20T11:25:57;4.90;;;4.50;;
15295;SDS011;7749;49.964;7.890;2023-08-20T11:28:25;4.35;;;3.95;;
15295;SDS011;7749;49.964;7.890;2023-08-20T11:30:54;4.45;;;4.05;;
15295;SDS011;7749;49.964;7.890;2023-08-20T11:33:23;4.55;;;4.25;;
15295;SDS011;7749;49.964;7.890;2023-08-20T11:35:51;4.07;;;3.78;;
15295;SDS011;7749;49.964;7.890;2023-08-20T11:38:20;3.95;;;3.67;;
15295;SDS011;7749;49.964;7.890;2023-08-20T11:40:49;4.72;;;3.72;;
15295;SDS011;7749;49.964;7.890;2023-08-20T11:43:17;4.20;;;3.90;;
15295;SDS011;7749;49.964;7.890;2023-08-20T11:45:47;4.15;;;3.75;;
15295;SDS011;7749;49.964;7.890;2023-08-20T11:48:16;4.60;;;3.97;;
15295;SDS011;7749;49.964;7.890;2023-08-20T11:50:44;4.88;;;3.45;;
15295;SDS011;7749;49.964;7.890;2023-08-20T11:53:11;3.60;;;3.30;;
15295;SDS011;7749;49.964;7.890;2023-08-20T11:55:40;3.60;;;3.30;;
15295;SDS011;7749;49.964;7.890;2023-08-20T11:58:28;4.05;;;3.45;;
15295;SDS011;7749;49.964;7.890;2023-08-20T12:00:55;3.70;;;3.40;;
15295;SDS011;7749;49.964;7.890;2023-08-20T12:03:29;3.28;;;3.00;;
15295;SDS011;7749;49.964;7.890;2023-08-20T12:05:58;4.63;;;3.40;;
15295;SDS011;7749;49.964;7.890;2023-08-20T12:08:25;4.07;;;3.72;;
15295;SDS011;7749;49.964;7.890;2023-08-20T12:10:52;4.75;;;3.28;;
15295;SDS011;7749;49.964;7.890;2023-08-20T12:13:24;3.33;;;3.03;;
15295;SDS011;7749;49.964;7.890;2023-08-20T12:15:52;3.10;;;2.90;;
15295;SDS011;7749;49.964;7.890;2023-08-20T12:18:19;4.97;;;3.53;;
15295;SDS011;7749;49.964;7.890;2023-08-20T12:20:47;3.50;;;3.20;;
15295;SDS011;7749;49.964;7.890;2023-08-20T12:23:14;3.25;;;3.00;;
15295;SDS011;7749;49.964;7.890;2023-08-20T12:25:42;3.30;;;3.10;;
15295;SDS011;7749;49.964;7.890;2023-08-20T12:28:10;3.33;;;3.13;;
15295;SDS011;7749;49.964;7.890;2023-08-20T12:30:37;3.30;;;3.00;;
15295;SDS011;7749;49.964;7.890;2023-08-20T12:33:06;2.95;;;2.75;;
15295;SDS011;7749;49.964;7.890;2023-08-20T12:35:34;3.22;;;3.03;;
15295;SDS011;7749;49.964;7.890;2023-08-20T12:38:02;3.58;;;3.28;;
15295;SDS011;7749;49.964;7.890;2023-08-20T12:40:30;3.45;;;3.15;;
15295;SDS011;7749;49.964;7.890;2023-08-20T12:42:58;3.13;;;2.78;;
15295;SDS011;7749;49.964;7.890;2023-08-20T12:45:25;2.90;;;2.70;;
15295;SDS011;7749;49.964;7.890;2023-08-20T12:47:53;3.05;;;2.80;;
15295;SDS011;7749;49.964;7.890;2023-08-20T12:50:21;3.38;;;3.00;;
15295;SDS011;7749;49.964;7.890;2023-08-20T12:52:48;5.40;;;2.90;;
15295;SDS011;7749;49.964;7.890;2023-08-20T12:55:17;3.10;;;2.90;;
15295;SDS011;7749;49.964;7.890;2023-08-20T12:57:54;4.47;;;3.10;;
15295;SDS011;7749;49.964;7.890;2023-08-20T13:00:26;4.07;;;3.13;;
15295;SDS011;7749;49.964;7.890;2023-08-20T13:02:54;4.65;;;2.85;;
15295;SDS011;7749;49.964;7.890;2023-08-20T13:05:22;4.25;;;3.13;;
15295;SDS011;7749;49.964;7.890;2023-08-20T13:07:51;3.08;;;2.88;;
15295;SDS011;7749;49.964;7.890;2023-08-20T13:10:19;3.90;;;3.38;;
15295;SDS011;7749;49.964;7.890;2023-08-20T13:12:51;4.55;;;3.35;;
15295;SDS011;7749;49.964;7.890;2023-08-20T13:15:21;4.07;;;3.20;;
15295;SDS011;7749;49.964;7.890;2023-08-20T13:17:49;3.22;;;3.03;;
15295;SDS011;7749;49.964;7.890;2023-08-20T13:20:17;3.95;;;3.13;;
15295;SDS011;7749;49.964;7.890;2023-08-20T13:22:49;3.40;;;3.20;;
15295;SDS011;7749;49.964;7.890;2023-08-20T13:25:18;3.95;;;3.13;;
15295;SDS011;7749;49.964;7.890;2023-08-20T13:27:48;3.25;;;3.03;;
15295;SDS011;7749;49.964;7.890;2023-08-20T13:30:16;3.50;;;3.20;;
15295;SDS011;7749;49.964;7.890;2023-08-20T13:32:44;3.20;;;2.78;;
15295;SDS011;7749;49.964;7.890;2023-08-20T13:35:12;4.38;;;3.55;;
15295;SDS011;7749;49.964;7.890;2023-08-20T13:37:41;3.60;;;3.30;;
15295;SDS011;7749;49.964;7.890;2023-08-20T13:40:09;3.28;;;3.00;;
15295;SDS011;7749;49.964;7.890;2023-08-20T13:42:37;3.80;;;3.40;;
15295;SDS011;7749;49.964;7.890;2023-08-20T13:45:05;3.45;;;3.25;;
15295;SDS011;7749;49.964;7.890;2023-08-20T13:47:33;4.10;;;3.70;;
15295;SDS011;7749;49.964;7.890;2023-08-20T13:50:01;3.55;;;3.25;;
15295;SDS011;7749;49.964;7.890;2023-08-20T13:52:31;3.78;;;3.47;;
15295;SDS011;7749;49.964;7.890;2023-08-20T13:54:58;3.88;;;3.58;;
15295;SDS011;7749;49.964;7.890;2023-08-20T13:57:26;3.92;;;3.63;;
15295;SDS011;7749;49.964;7.890;2023-08-20T13:59:53;4.28;;;3.88;;
15295;SDS011;7749;49.964;7.890;2023-08-20T14:02:21;4.18;;;3.42;;
15295;SDS011;7749;49.964;7.890;2023-08-20T14:04:48;4.30;;;3.92;;
15295;SDS011;7749;49.964;7.890;2023-08-20T14:07:17;4.63;;;4.22;;
15295;SDS011;7749;49.964;7.890;2023-08-20T14:09:45;4.55;;;4.25;;
15295;SDS011;7749;49.964;7.890;2023-08-20T14:12:12;4.65;;;4.20;;
15295;SDS011;7749;49.964;7.890;2023-08-20T14:14:40;5.40;;;4.43;;
15295;SDS011;7749;49.964;7.890;2023-08-20T14:17:07;6.80;;;4.32;;
15295;SDS011;7749;49.964;7.890;2023-08-20T14:19:35;4.93;;;4.03;;
15295;SDS011;7749;49.964;7.890;2023-08-20T14:22:03;4.80;;;3.50;;
15295;SDS011;7749;49.964;7.890;2023-08-20T14:24:30;5.38;;;3.70;;
15295;SDS011;7749;49.964;7.890;2023-08-20T14:26:58;3.67;;;3.47;;
15295;SDS011;7749;49.964;7.890;2023-08-20T14:29:25;3.78;;;3.47;;
15295;SDS011;7749;49.964;7.890;2023-08-20T14:31:53;4.30;;;3.65;;
15295;SDS011;7749;49.964;7.890;2023-08-20T14:34:20;4.18;;;3.80;;
15295;SDS011;7749;49.964;7.890;2023-08-20T14:36:48;6.65;;;3.20;;
15295;SDS011;7749;49.964;7.890;2023-08-20T14:39:15;3.83;;;3.53;;
15295;SDS011;7749;49.964;7.890;2023-08-20T14:41:43;3.80;;;3.50;;
15295;SDS011;7749;49.964;7.890;2023-08-20T14:44:10;3.55;;;3.25;;
15295;SDS011;7749;49.964;7.890;2023-08-20T14:46:38;3.90;;;3.60;;
15295;SDS011;7749;49.964;7.890;2023-08-20T14:49:05;3.97;;;3.50;;
15295;SDS011;7749;49.964;7.890;2023-08-20T14:51:33;3.97;;;3.67;;
15295;SDS011;7749;49.964;7.890;2023-08-20T14:54:01;5.03;;;3.95;;
15295;SDS011;7749;49.964;7.890;2023-08-20T14:56:30;4.53;;;4.13;;
15295;SDS011;7749;49.964;7.890;2023-08-20T14:58:58;5.25;;;4.50;;
15295;SDS011;7749;49.964;7.890;2023-08-20T15:01:28;4.45;;;4.10;;
15295;SDS011;7749;49.964;7.890;2023-08-20T15:03:56;6.93;;;4.35;;
15295;SDS011;7749;49.964;7.890;2023-08-20T15:06:23;4.53;;;4.13;;